sensor_id;sensor_type;location;lat;lon;timestamp;pressure;altitude;pressure_sealevel;temperature;humidity
45621;BME280;31345;51.522;10.702;2024-01-06T00:01:43;97801.25;;;5.46;100.00
45621;BME280;31345;51.522;10.702;2024-01-06T00:04:16;97796.72;;;5.50;100.00
45621;BME280;31345;51.522;10.702;2024-01-06T00:06:48;97801.25;;;5.46;100.00
45621;BME280;31345;51.522;10.702;2024-01-06T00:09:21;97799.06;;;5.40;100.00
45621;BME280;31345;51.522;10.702;2024-01-06T00:11:54;97792.25;;;5.39;100.00
45621;BME280;31345;51.522;10.702;2024-01-06T00:14:27;97799.47;;;5.34;100.00
45621;BME280;31345;51.522;10.702;2024-01-06T00:16:54;97806.72;;;5.29;100.00
45621;BME280;31345;51.522;10.702;2024-01-06T00:19:26;97802.38;;;5.29;100.00
45621;BME280;31345;51.522;10.702;2024-01-06T00:21:59;97795.63;;;5.27;100.00
45621;BME280;31345;51.522;10.702;2024-01-06T00:24:31;97797.88;;;5.18;100.00
45621;BME280;31345;51.522;10.702;2024-01-06T00:27:05;97799.47;;;5.21;100.00
45621;BME280;31345;51.522;10.702;2024-01-06T00:29:38;97805.16;;;5.26;100.00
45621;BME280;31345;51.522;10.702;2024-01-06T00:32:11;97806.19;;;5.23;100.00
45621;BME280;31345;51.522;10.702;2024-01-06T00:34:43;97812.94;;;5.26;100.00
45621;BME280;31345;51.522;10.702;2024-01-06T00:37:16;97816.38;;;5.27;100.00
45621;BME280;31345;51.522;10.702;2024-01-06T00:39:48;97810.78;;;5.33;100.00
45621;BME280;31345;51.522;10.702;2024-01-06T00:42:23;97814.59;;;5.27;100.00
45621;BME280;31345;51.522;10.702;2024-01-06T00:44:55;97819.59;;;5.30;100.00
45621;BME280;31345;51.522;10.702;2024-01-06T00:47:27;97819.38;;;5.33;100.00
45621;BME280;31345;51.522;10.702;2024-01-06T00:49:57;97821.47;;;5.41;100.00
45621;BME280;31345;51.522;10.702;2024-01-06T00:52:38;97816.00;;;5.46;100.00
45621;BME280;31345;51.522;10.702;2024-01-06T00:55:10;97816.09;;;5.44;100.00
45621;BME280;31345;51.522;10.702;2024-01-06T00:57:53;97824.81;;;5.43;100.00
45621;BME280;31345;51.522;10.702;2024-01-06T01:00:25;97820.66;;;5.41;100.00
45621;BME280;31345;51.522;10.702;2024-01-06T01:02:58;97831.41;;;5.34;100.00
45621;BME280;31345;51.522;10.702;2024-01-06T01:05:45;97834.28;;;5.30;100.00
45621;BME280;31345;51.522;10.702;2024-01-06T01:08:28;97836.22;;;5.41;100.00
45621;BME280;31345;51.522;10.702;2024-01-06T01:11:22;97837.75;;;5.43;100.00
45621;BME280;31345;51.522;10.702;2024-01-06T01:14:10;97841.50;;;5.39;100.00
45621;BME280;31345;51.522;10.702;2024-01-06T01:16:45;97848.41;;;5.39;100.00
45621;BME280;31345;51.522;10.702;2024-01-06T01:19:15;97852.53;;;5.28;100.00
45621;BME280;31345;51.522;10.702;2024-01-06T01:21:54;97855.03;;;5.30;100.00
45621;BME280;31345;51.522;10.702;2024-01-06T01:24:29;97860.44;;;5.27;100.00
45621;BME280;31345;51.522;10.702;2024-01-06T01:27:10;97855.25;;;5.27;100.00
45621;BME280;31345;51.522;10.702;2024-01-06T01:29:47;97851.72;;;5.28;100.00
45621;BME280;31345;51.522;10.702;2024-01-06T01:32:23;97862.13;;;5.13;100.00
45621;BME280;31345;51.522;10.702;2024-01-06T01:34:55;97867.06;;;5.31;100.00
45621;BME280;31345;51.522;10.702;2024-01-06T01:37:23;97866.03;;;5.33;100.00
45621;BME280;31345;51.522;10.702;2024-01-06T01:40:10;97858.78;;;5.39;100.00
45621;BME280;31345;51.522;10.702;2024-01-06T01:42:41;97858.56;;;5.29;100.00
45621;BME280;31345;51.522;10.702;2024-01-06T01:45:18;97865.19;;;5.33;100.00
45621;BME280;31345;51.522;10.702;2024-01-06T01:47:49;97865.47;;;5.28;100.00
45621;BME280;31345;51.522;10.702;2024-01-06T01:50:27;97867.06;;;5.31;100.00
45621;BME280;31345;51.522;10.702;2024-01-06T01:53:00;97873.06;;;5.31;100.00
45621;BME280;31345;51.522;10.702;2024-01-06T01:55:38;97869.66;;;5.31;100.00
45621;BME280;31345;51.522;10.702;2024-01-06T01:58:09;97870.28;;;5.34;100.00
45621;BME280;31345;51.522;10.702;2024-01-06T02:00:44;97876.78;;;5.27;100.00
45621;BME280;31345;51.522;10.702;2024-01-06T02:03:14;97879.47;;;5.26;100.00
45621;BME280;31345;51.522;10.702;2024-01-06T02:05:46;97876.69;;;5.29;100.00
45621;BME280;31345;51.522;10.702;2024-01-06T02:08:24;97884.03;;;5.22;100.00
45621;BME280;31345;51.522;10.702;2024-01-06T02:10:59;97881.16;;;5.27;100.00
45621;BME280;31345;51.522;10.702;2024-01-06T02:13:35;97874.63;;;5.34;100.00
45621;BME280;31345;51.522;10.702;2024-01-06T02:16:18;97876.06;;;5.25;100.00
45621;BME280;31345;51.522;10.702;2024-01-06T02:18:49;97867.97;;;5.30;100.00
45621;BME280;31345;51.522;10.702;2024-01-06T02:21:21;97876.97;;;5.24;100.00
45621;BME280;31345;51.522;10.702;2024-01-06T02:24:03;97878.66;;;5.25;100.00
45621;BME280;31345;51.522;10.702;2024-01-06T02:26:32;97881.41;;;5.36;100.00
45621;BME280;31345;51.522;10.702;2024-01-06T02:29:05;97881.78;;;5.30;100.00
45621;BME280;31345;51.522;10.702;2024-01-06T02:31:38;97882.03;;;5.40;100.00
45621;BME280;31345;51.522;10.702;2024-01-06T02:34:10;97883.09;;;5.50;100.00
45621;BME280;31345;51.522;10.702;2024-01-06T02:36:41;97881.75;;;5.45;100.00
45621;BME280;31345;51.522;10.702;2024-01-06T02:39:20;97886.59;;;5.49;100.00
45621;BME280;31345;51.522;10.702;2024-01-06T02:41:50;97887.94;;;5.42;100.00
45621;BME280;31345;51.522;10.702;2024-01-06T02:44:18;97890.94;;;5.36;100.00
45621;BME280;31345;51.522;10.702;2024-01-06T02:46:59;97893.00;;;5.44;100.00
45621;BME280;31345;51.522;10.702;2024-01-06T02:49:34;97880.91;;;5.44;100.00
45621;BME280;31345;51.522;10.702;2024-01-06T02:52:08;97887.53;;;5.48;100.00
45621;BME280;31345;51.522;10.702;2024-01-06T02:54:44;97884.00;;;5.49;100.00
45621;BME280;31345;51.522;10.702;2024-01-06T02:57:22;97878.53;;;5.54;100.00
45621;BME280;31345;51.522;10.702;2024-01-06T02:59:59;97889.19;;;5.49;100.00
45621;BME280;31345;51.522;10.702;2024-01-06T03:02:29;97893.75;;;5.46;100.00
45621;BME280;31345;51.522;10.702;2024-01-06T03:05:05;97890.41;;;5.44;100.00
45621;BME280;31345;51.522;10.702;2024-01-06T03:07:37;97902.25;;;5.48;100.00
45621;BME280;31345;51.522;10.702;2024-01-06T03:10:13;97896.88;;;5.51;100.00
45621;BME280;31345;51.522;10.702;2024-01-06T03:12:43;97900.22;;;5.53;100.00
45621;BME280;31345;51.522;10.702;2024-01-06T03:15:15;97906.31;;;5.52;100.00
45621;BME280;31345;51.522;10.702;2024-01-06T03:17:49;97902.25;;;5.48;100.00
45621;BME280;31345;51.522;10.702;2024-01-06T03:20:22;97919.69;;;5.46;100.00
45621;BME280;31345;51.522;10.702;2024-01-06T03:23:02;97913.19;;;5.53;100.00
45621;BME280;31345;51.522;10.702;2024-01-06T03:25:32;97924.59;;;5.50;100.00
45621;BME280;31345;51.522;10.702;2024-01-06T03:28:13;97917.19;;;5.44;100.00
45621;BME280;31345;51.522;10.702;2024-01-06T03:30:45;97923.78;;;5.35;100.00
45621;BME280;31345;51.522;10.702;2024-01-06T03:33:21;97928.06;;;5.36;100.00
45621;BME280;31345;51.522;10.702;2024-01-06T03:35:59;97922.03;;;5.36;100.00
45621;BME280;31345;51.522;10.702;2024-01-06T03:38:35;97929.63;;;5.39;100.00
45621;BME280;31345;51.522;10.702;2024-01-06T03:41:05;97930.00;;;5.33;100.00
45621;BME280;31345;51.522;10.702;2024-01-06T03:43:40;97928.97;;;5.35;100.00
45621;BME280;31345;51.522;10.702;2024-01-06T03:46:15;97924.66;;;5.21;100.00
45621;BME280;31345;51.522;10.702;2024-01-06T03:48:55;97931.66;;;5.34;100.00
45621;BME280;31345;51.522;10.702;2024-01-06T03:51:37;97934.41;;;5.45;100.00
45621;BME280;31345;51.522;10.702;2024-01-06T03:54:21;97937.59;;;5.36;100.00
45621;BME280;31345;51.522;10.702;2024-01-06T03:56:59;97938.44;;;5.36;100.00
45621;BME280;31345;51.522;10.702;2024-01-06T03:59:35;97944.91;;;5.29;100.00
45621;BME280;31345;51.522;10.702;2024-01-06T04:02:24;97935.84;;;5.36;100.00
45621;BME280;31345;51.522;10.702;2024-01-06T04:05:00;97938.63;;;5.33;100.00
45621;BME280;31345;51.522;10.702;2024-01-06T04:07:33;97941.00;;;5.36;100.00
45621;BME280;31345;51.522;10.702;2024-01-06T04:10:01;97941.19;;;5.33;100.00
45621;BME280;31345;51.522;10.702;2024-01-06T04:12:30;97945.00;;;5.28;100.00
45621;BME280;31345;51.522;10.702;2024-01-06T04:15:08;97949.00;;;5.19;100.00
45621;BME280;31345;51.522;10.702;2024-01-06T04:17:48;97950.41;;;5.10;100.00
45621;BME280;31345;51.522;10.702;2024-01-06T04:20:26;97950.38;;;5.24;100.00
45621;BME280;31345;51.522;10.702;2024-01-06T04:23:02;97956.59;;;5.22;100.00
45621;BME280;31345;51.522;10.702;2024-01-06T04:25:52;97949.88;;;5.32;100.00
45621;BME280;31345;51.522;10.702;2024-01-06T04:28:37;97953.75;;;5.40;100.00
45621;BME280;31345;51.522;10.702;2024-01-06T04:31:20;97950.63;;;5.34;100.00
45621;BME280;31345;51.522;10.702;2024-01-06T04:34:00;97948.41;;;5.28;100.00
45621;BME280;31345;51.522;10.702;2024-01-06T04:36:36;97957.22;;;5.26;100.00
45621;BME280;31345;51.522;10.702;2024-01-06T04:39:09;97956.59;;;5.22;100.00
45621;BME280;31345;51.522;10.702;2024-01-06T04:41:39;97959.63;;;5.14;100.00
45621;BME280;31345;51.522;10.702;2024-01-06T04:44:11;97962.72;;;5.06;100.00
45621;BME280;31345;51.522;10.702;2024-01-06T04:47:11;97968.47;;;4.97;100.00
45621;BME280;31345;51.522;10.702;2024-01-06T04:49:44;97967.81;;;5.08;100.00
45621;BME280;31345;51.522;10.702;2024-01-06T04:52:23;97960.31;;;5.03;100.00
45621;BME280;31345;51.522;10.702;2024-01-06T04:54:56;97969.47;;;4.94;100.00
45621;BME280;31345;51.522;10.702;2024-01-06T04:57:44;97966.41;;;5.02;100.00
45621;BME280;31345;51.522;10.702;2024-01-06T05:00:18;97969.47;;;5.09;100.00
45621;BME280;31345;51.522;10.702;2024-01-06T05:02:52;97970.75;;;5.16;100.00
45621;BME280;31345;51.522;10.702;2024-01-06T05:05:30;97971.13;;;5.10;100.00
45621;BME280;31345;51.522;10.702;2024-01-06T05:08:03;97973.06;;;5.06;100.00
45621;BME280;31345;51.522;10.702;2024-01-06T05:10:36;97980.56;;;5.11;100.00
45621;BME280;31345;51.522;10.702;2024-01-06T05:13:14;97978.16;;;5.08;100.00
45621;BME280;31345;51.522;10.702;2024-01-06T05:15:44;97980.94;;;5.05;100.00
45621;BME280;31345;51.522;10.702;2024-01-06T05:18:17;97979.38;;;5.02;100.00
45621;BME280;31345;51.522;10.702;2024-01-06T05:20:48;97978.16;;;5.08;100.00
45621;BME280;31345;51.522;10.702;2024-01-06T05:23:16;97996.31;;;5.08;100.00
45621;BME280;31345;51.522;10.702;2024-01-06T05:25:48;97995.09;;;4.99;100.00
45621;BME280;31345;51.522;10.702;2024-01-06T05:28:21;97993.53;;;5.11;100.00
45621;BME280;31345;51.522;10.702;2024-01-06T05:30:54;97996.41;;;5.06;100.00
45621;BME280;31345;51.522;10.702;2024-01-06T05:33:22;97997.31;;;5.05;100.00
45621;BME280;31345;51.522;10.702;2024-01-06T05:35:54;97996.03;;;5.13;100.00
45621;BME280;31345;51.522;10.702;2024-01-06T05:38:27;98002.38;;;5.21;100.00
45621;BME280;31345;51.522;10.702;2024-01-06T05:40:54;98001.94;;;5.15;100.00
45621;BME280;31345;51.522;10.702;2024-01-06T05:43:26;98009.44;;;5.05;100.00
45621;BME280;31345;51.522;10.702;2024-01-06T05:46:00;98007.97;;;5.15;100.00
45621;BME280;31345;51.522;10.702;2024-01-06T05:48:27;98014.16;;;5.13;100.00
45621;BME280;31345;51.522;10.702;2024-01-06T05:50:55;98013.69;;;5.06;100.00
45621;BME280;31345;51.522;10.702;2024-01-06T05:53:28;98013.97;;;5.01;100.00
45621;BME280;31345;51.522;10.702;2024-01-06T05:56:00;98025.34;;;5.13;100.00
45621;BME280;31345;51.522;10.702;2024-01-06T05:58:32;98014.22;;;5.26;100.00
45621;BME280;31345;51.522;10.702;2024-01-06T06:01:06;98008.22;;;5.25;100.00
45621;BME280;31345;51.522;10.702;2024-01-06T06:03:34;98013.59;;;5.22;100.00
45621;BME280;31345;51.522;10.702;2024-01-06T06:06:06;98014.16;;;5.13;100.00
45621;BME280;31345;51.522;10.702;2024-01-06T06:08:40;98017.13;;;5.21;100.00
45621;BME280;31345;51.522;10.702;2024-01-06T06:11:08;98011.56;;;5.27;100.00
45621;BME280;31345;51.522;10.702;2024-01-06T06:13:43;98019.13;;;5.16;100.00
45621;BME280;31345;51.522;10.702;2024-01-06T06:16:16;98025.53;;;5.10;100.00
45621;BME280;31345;51.522;10.702;2024-01-06T06:18:49;98022.28;;;4.92;100.00
45621;BME280;31345;51.522;10.702;2024-01-06T06:21:16;98023.41;;;4.88;100.00
45621;BME280;31345;51.522;10.702;2024-01-06T06:23:49;98027.19;;;4.82;100.00
45621;BME280;31345;51.522;10.702;2024-01-06T06:26:21;98032.91;;;4.72;100.00
45621;BME280;31345;51.522;10.702;2024-01-06T06:28:49;98034.94;;;4.82;100.00
45621;BME280;31345;51.522;10.702;2024-01-06T06:31:22;98037.47;;;4.83;100.00
45621;BME280;31345;51.522;10.702;2024-01-06T06:33:55;98038.47;;;4.81;100.00
45621;BME280;31345;51.522;10.702;2024-01-06T06:36:27;98042.56;;;4.70;100.00
45621;BME280;31345;51.522;10.702;2024-01-06T06:39:00;98030.78;;;4.65;100.00
45621;BME280;31345;51.522;10.702;2024-01-06T06:41:32;98040.81;;;4.40;100.00
45621;BME280;31345;51.522;10.702;2024-01-06T06:44:00;98047.47;;;4.44;100.00
45621;BME280;31345;51.522;10.702;2024-01-06T06:46:33;98053.44;;;4.30;100.00
45621;BME280;31345;51.522;10.702;2024-01-06T06:49:06;98050.00;;;4.30;100.00
45621;BME280;31345;51.522;10.702;2024-01-06T06:51:38;98055.94;;;4.32;100.00
45621;BME280;31345;51.522;10.702;2024-01-06T06:54:17;98057.25;;;4.39;100.00
45621;BME280;31345;51.522;10.702;2024-01-06T06:56:49;98066.53;;;4.43;100.00
45621;BME280;31345;51.522;10.702;2024-01-06T06:59:22;98080.03;;;4.49;100.00
45621;BME280;31345;51.522;10.702;2024-01-06T07:01:56;98081.13;;;4.44;100.00
45621;BME280;31345;51.522;10.702;2024-01-06T07:04:29;98088.25;;;4.41;100.00
45621;BME280;31345;51.522;10.702;2024-01-06T07:06:56;98094.50;;;4.37;100.00
45621;BME280;31345;51.522;10.702;2024-01-06T07:09:23;98099.50;;;4.40;100.00
45621;BME280;31345;51.522;10.702;2024-01-06T07:11:56;98106.03;;;4.31;100.00
45621;BME280;31345;51.522;10.702;2024-01-06T07:14:28;98107.09;;;4.43;100.00
45621;BME280;31345;51.522;10.702;2024-01-06T07:17:02;98109.69;;;4.43;100.00
45621;BME280;31345;51.522;10.702;2024-01-06T07:19:35;98116.09;;;4.52;100.00
45621;BME280;31345;51.522;10.702;2024-01-06T07:22:07;98117.53;;;4.41;100.00
45621;BME280;31345;51.522;10.702;2024-01-06T07:24:40;98127.63;;;4.46;100.00
45621;BME280;31345;51.522;10.702;2024-01-06T07:27:12;98129.84;;;4.52;100.00
45621;BME280;31345;51.522;10.702;2024-01-06T07:29:46;98134.84;;;4.55;100.00
45621;BME280;31345;51.522;10.702;2024-01-06T07:32:19;98139.03;;;4.58;100.00
45621;BME280;31345;51.522;10.702;2024-01-06T07:34:52;98146.22;;;4.53;100.00
45621;BME280;31345;51.522;10.702;2024-01-06T07:37:25;98147.63;;;4.58;100.00
45621;BME280;31345;51.522;10.702;2024-01-06T07:39:52;98158.22;;;4.70;100.00
45621;BME280;31345;51.522;10.702;2024-01-06T07:42:25;98158.56;;;4.64;100.00
45621;BME280;31345;51.522;10.702;2024-01-06T07:44:52;98156.91;;;4.63;100.00
45621;BME280;31345;51.522;10.702;2024-01-06T07:47:32;98169.00;;;4.62;100.00
45621;BME280;31345;51.522;10.702;2024-01-06T07:50:44;98171.56;;;4.78;100.00
45621;BME280;31345;51.522;10.702;2024-01-06T07:53:12;98182.78;;;4.79;100.00
45621;BME280;31345;51.522;10.702;2024-01-06T07:55:40;98179.09;;;4.83;100.00
45621;BME280;31345;51.522;10.702;2024-01-06T07:58:07;98185.56;;;4.90;100.00
45621;BME280;31345;51.522;10.702;2024-01-06T08:00:40;98183.66;;;4.78;100.00
45621;BME280;31345;51.522;10.702;2024-01-06T08:03:08;98192.19;;;4.80;100.00
45621;BME280;31345;51.522;10.702;2024-01-06T08:05:37;98196.03;;;4.89;100.00
45621;BME280;31345;51.522;10.702;2024-01-06T08:08:10;98195.53;;;4.82;100.00
45621;BME280;31345;51.522;10.702;2024-01-06T08:10:44;98196.75;;;4.91;100.00
45621;BME280;31345;51.522;10.702;2024-01-06T08:13:16;98203.19;;;5.00;100.00
45621;BME280;31345;51.522;10.702;2024-01-06T08:15:49;98199.56;;;5.02;100.00
45621;BME280;31345;51.522;10.702;2024-01-06T08:18:23;98209.47;;;5.10;100.00
45621;BME280;31345;51.522;10.702;2024-01-06T08:20:55;98208.38;;;5.00;100.00
45621;BME280;31345;51.522;10.702;2024-01-06T08:23:34;98210.78;;;5.03;100.00
45621;BME280;31345;51.522;10.702;2024-01-06T08:27:07;98222.34;;;5.11;100.00
45621;BME280;31345;51.522;10.702;2024-01-06T08:29:54;98218.75;;;5.14;100.00
45621;BME280;31345;51.522;10.702;2024-01-06T08:32:22;98218.59;;;5.17;100.00
45621;BME280;31345;51.522;10.702;2024-01-06T08:35:30;98221.94;;;5.19;100.00
45621;BME280;31345;51.522;10.702;2024-01-06T08:43:26;98230.41;;;5.37;100.00
45621;BME280;31345;51.522;10.702;2024-01-06T08:46:09;98224.09;;;5.42;100.00
45621;BME280;31345;51.522;10.702;2024-01-06T08:55:28;98251.59;;;5.44;100.00
45621;BME280;31345;51.522;10.702;2024-01-06T08:58:04;98250.66;;;5.31;100.00
45621;BME280;31345;51.522;10.702;2024-01-06T09:00:32;98260.47;;;5.40;100.00
45621;BME280;31345;51.522;10.702;2024-01-06T09:03:03;98265.53;;;5.27;100.00
45621;BME280;31345;51.522;10.702;2024-01-06T09:05:34;98262.56;;;5.19;100.00
45621;BME280;31345;51.522;10.702;2024-01-06T09:08:06;98270.94;;;5.08;100.00
45621;BME280;31345;51.522;10.702;2024-01-06T09:10:34;98264.56;;;5.14;100.00
45621;BME280;31345;51.522;10.702;2024-01-06T09:13:07;98268.91;;;5.13;100.00
45621;BME280;31345;51.522;10.702;2024-01-06T09:19:49;98270.25;;;5.20;100.00
45621;BME280;31345;51.522;10.702;2024-01-06T09:22:28;98273.53;;;5.39;100.00
45621;BME280;31345;51.522;10.702;2024-01-06T09:24:58;98270.84;;;5.40;100.00
45621;BME280;31345;51.522;10.702;2024-01-06T09:28:06;98268.09;;;5.58;100.00
45621;BME280;31345;51.522;10.702;2024-01-06T09:30:46;98276.34;;;5.50;100.00
45621;BME280;31345;51.522;10.702;2024-01-06T09:33:33;98279.56;;;5.54;100.00
45621;BME280;31345;51.522;10.702;2024-01-06T09:36:20;98279.19;;;5.45;100.00
45621;BME280;31345;51.522;10.702;2024-01-06T09:39:02;98292.06;;;5.47;100.00
45621;BME280;31345;51.522;10.702;2024-01-06T09:45:42;98296.19;;;5.66;100.00
45621;BME280;31345;51.522;10.702;2024-01-06T09:49:04;98300.19;;;5.71;100.00
45621;BME280;31345;51.522;10.702;2024-01-06T09:51:40;98296.56;;;5.88;100.00
45621;BME280;31345;51.522;10.702;2024-01-06T09:54:23;98302.59;;;5.89;100.00
45621;BME280;31345;51.522;10.702;2024-01-06T09:57:04;98303.75;;;5.99;100.00
45621;BME280;31345;51.522;10.702;2024-01-06T09:59:38;98297.50;;;5.87;100.00
45621;BME280;31345;51.522;10.702;2024-01-06T10:02:18;98306.63;;;6.09;100.00
45621;BME280;31345;51.522;10.702;2024-01-06T10:04:46;98305.56;;;5.97;100.00
45621;BME280;31345;51.522;10.702;2024-01-06T10:07:21;98309.09;;;5.96;100.00
45621;BME280;31345;51.522;10.702;2024-01-06T10:09:49;98315.13;;;6.11;100.00
45621;BME280;31345;51.522;10.702;2024-01-06T10:12:26;98312.25;;;5.87;100.00
45621;BME280;31345;51.522;10.702;2024-01-06T10:14:54;98309.75;;;5.85;100.00
45621;BME280;31345;51.522;10.702;2024-01-06T10:17:33;98317.25;;;5.75;100.00
45621;BME280;31345;51.522;10.702;2024-01-06T10:20:09;98321.44;;;5.62;100.00
45621;BME280;31345;51.522;10.702;2024-01-06T10:22:43;98321.56;;;5.75;100.00
45621;BME280;31345;51.522;10.702;2024-01-06T10:25:15;98321.50;;;5.76;100.00
45621;BME280;31345;51.522;10.702;2024-01-06T10:27:49;98319.53;;;5.80;100.00
45621;BME280;31345;51.522;10.702;2024-01-06T10:30:16;98328.66;;;6.02;100.00
45621;BME280;31345;51.522;10.702;2024-01-06T10:32:44;98328.66;;;6.02;100.00
45621;BME280;31345;51.522;10.702;2024-01-06T10:35:11;98327.34;;;5.95;100.00
45621;BME280;31345;51.522;10.702;2024-01-06T10:37:44;98330.63;;;6.13;100.00
45621;BME280;31345;51.522;10.702;2024-01-06T10:40:17;98333.81;;;5.87;100.00
45621;BME280;31345;51.522;10.702;2024-01-06T10:42:51;98328.44;;;5.76;100.00
45621;BME280;31345;51.522;10.702;2024-01-06T10:45:19;98334.34;;;5.63;100.00
45621;BME280;31345;51.522;10.702;2024-01-06T10:47:52;98330.63;;;5.68;100.00
45621;BME280;31345;51.522;10.702;2024-01-06T10:50:27;98336.59;;;5.70;100.00
45621;BME280;31345;51.522;10.702;2024-01-06T10:52:56;98329.28;;;5.76;100.00
45621;BME280;31345;51.522;10.702;2024-01-06T10:55:30;98333.09;;;5.85;100.00
45621;BME280;31345;51.522;10.702;2024-01-06T10:58:00;98329.22;;;5.62;100.00
45621;BME280;31345;51.522;10.702;2024-01-06T11:00:28;98334.25;;;5.65;100.00
45621;BME280;31345;51.522;10.702;2024-01-06T11:03:02;98333.31;;;5.66;100.00
45621;BME280;31345;51.522;10.702;2024-01-06T11:05:36;98332.03;;;5.59;100.00
45621;BME280;31345;51.522;10.702;2024-01-06T11:08:05;98328.88;;;5.68;100.00
45621;BME280;31345;51.522;10.702;2024-01-06T11:10:34;98328.72;;;5.71;100.00
45621;BME280;31345;51.522;10.702;2024-01-06T11:13:08;98330.03;;;5.48;100.00
45621;BME280;31345;51.522;10.702;2024-01-06T11:15:56;98327.19;;;5.53;100.00
45621;BME280;31345;51.522;10.702;2024-01-06T11:20:03;98327.09;;;5.54;100.00
45621;BME280;31345;51.522;10.702;2024-01-06T11:22:52;98324.00;;;5.78;100.00
45621;BME280;31345;51.522;10.702;2024-01-06T11:26:03;98327.69;;;5.74;100.00
45621;BME280;31345;51.522;10.702;2024-01-06T11:28:44;98332.97;;;5.72;100.00
45621;BME280;31345;51.522;10.702;2024-01-06T11:31:22;98328.81;;;5.84;100.00
45621;BME280;31345;51.522;10.702;2024-01-06T11:33:54;98333.78;;;6.04;100.00
45621;BME280;31345;51.522;10.702;2024-01-06T11:36:27;98333.00;;;6.01;100.00
45621;BME280;31345;51.522;10.702;2024-01-06T11:38:59;98322.19;;;6.09;100.00
45621;BME280;31345;51.522;10.702;2024-01-06T11:41:48;98322.25;;;5.93;100.00
45621;BME280;31345;51.522;10.702;2024-01-06T11:44:22;98318.75;;;6.09;100.00
45621;BME280;31345;51.522;10.702;2024-01-06T11:46:51;98318.94;;;6.06;100.00
45621;BME280;31345;51.522;10.702;2024-01-06T11:49:20;98319.69;;;6.08;100.00
45621;BME280;31345;51.522;10.702;2024-01-06T11:51:53;98317.34;;;6.03;100.00
45621;BME280;31345;51.522;10.702;2024-01-06T11:54:20;98317.81;;;6.10;100.00
45621;BME280;31345;51.522;10.702;2024-01-06T11:56:48;98323.94;;;6.09;100.00
45621;BME280;31345;51.522;10.702;2024-01-06T11:59:20;98323.50;;;6.17;100.00
45621;BME280;31345;51.522;10.702;2024-01-06T12:01:49;98324.78;;;6.24;100.00
45621;BME280;31345;51.522;10.702;2024-01-06T12:04:17;98327.16;;;6.12;100.00
45621;BME280;31345;51.522;10.702;2024-01-06T12:06:49;98330.91;;;6.23;100.00
45621;BME280;31345;51.522;10.702;2024-01-06T12:09:22;98330.25;;;6.19;100.00
45621;BME280;31345;51.522;10.702;2024-01-06T12:12:00;98328.22;;;6.39;100.00
45621;BME280;31345;51.522;10.702;2024-01-06T12:14:28;98333.22;;;6.27;100.00
45621;BME280;31345;51.522;10.702;2024-01-06T12:16:58;98329.88;;;6.25;100.00
45621;BME280;31345;51.522;10.702;2024-01-06T12:19:33;98335.06;;;6.40;100.00
45621;BME280;31345;51.522;10.702;2024-01-06T12:22:01;98328.84;;;6.28;100.00
45621;BME280;31345;51.522;10.702;2024-01-06T12:24:29;98331.63;;;6.39;100.00
45621;BME280;31345;51.522;10.702;2024-01-06T12:26:57;98330.81;;;6.39;100.00
45621;BME280;31345;51.522;10.702;2024-01-06T12:29:29;98336.91;;;6.38;100.00
45621;BME280;31345;51.522;10.702;2024-01-06T12:32:05;98335.06;;;6.40;100.00
45621;BME280;31345;51.522;10.702;2024-01-06T12:34:33;98331.53;;;6.41;100.00
45621;BME280;31345;51.522;10.702;2024-01-06T12:37:00;98331.09;;;6.49;100.00
45621;BME280;31345;51.522;10.702;2024-01-06T12:39:29;98330.88;;;6.52;100.00
45621;BME280;31345;51.522;10.702;2024-01-06T12:41:57;98331.22;;;6.60;100.00
45621;BME280;31345;51.522;10.702;2024-01-06T12:44:26;98326.78;;;6.62;100.00
45621;BME280;31345;51.522;10.702;2024-01-06T12:46:54;98328.00;;;6.57;100.00
45621;BME280;31345;51.522;10.702;2024-01-06T12:49:28;98326.53;;;6.67;100.00
45621;BME280;31345;51.522;10.702;2024-01-06T12:51:55;98331.06;;;6.63;100.00
45621;BME280;31345;51.522;10.702;2024-01-06T12:54:23;98330.13;;;6.64;100.00
45621;BME280;31345;51.522;10.702;2024-01-06T12:56:55;98332.38;;;6.98;100.00
45621;BME280;31345;51.522;10.702;2024-01-06T12:59:23;98331.84;;;6.78;100.00
45621;BME280;31345;51.522;10.702;2024-01-06T13:01:52;98343.75;;;6.68;100.00
45621;BME280;31345;51.522;10.702;2024-01-06T13:04:25;98336.59;;;6.86;100.00
45621;BME280;31345;51.522;10.702;2024-01-06T13:07:00;98341.72;;;6.73;100.00
45621;BME280;31345;51.522;10.702;2024-01-06T13:09:33;98336.41;;;6.75;100.00
45621;BME280;31345;51.522;10.702;2024-01-06T13:12:07;98341.50;;;6.91;100.00
45621;BME280;31345;51.522;10.702;2024-01-06T13:14:35;98337.78;;;6.95;100.00
45621;BME280;31345;51.522;10.702;2024-01-06T13:17:08;98330.25;;;7.18;100.00
45621;BME280;31345;51.522;10.702;2024-01-06T13:19:45;98336.94;;;7.22;100.00
45621;BME280;31345;51.522;10.702;2024-01-06T13:22:23;98343.00;;;7.08;100.00
45621;BME280;31345;51.522;10.702;2024-01-06T13:25:03;98339.19;;;6.72;100.00
45621;BME280;31345;51.522;10.702;2024-01-06T13:27:45;98350.25;;;6.75;100.00
45621;BME280;31345;51.522;10.702;2024-01-06T13:30:12;98355.28;;;6.64;100.00
45621;BME280;31345;51.522;10.702;2024-01-06T13:32:46;98361.00;;;6.69;100.00
45621;BME280;31345;51.522;10.702;2024-01-06T13:35:14;98362.06;;;6.94;100.00
45621;BME280;31345;51.522;10.702;2024-01-06T13:37:48;98363.41;;;6.87;100.00
45621;BME280;31345;51.522;10.702;2024-01-06T13:40:17;98374.41;;;6.63;100.00
45621;BME280;31345;51.522;10.702;2024-01-06T13:42:51;98368.63;;;6.58;100.00
45621;BME280;31345;51.522;10.702;2024-01-06T13:45:23;98377.16;;;6.60;100.00
45621;BME280;31345;51.522;10.702;2024-01-06T13:47:56;98377.91;;;6.62;100.00
45621;BME280;31345;51.522;10.702;2024-01-06T13:50:29;98379.59;;;6.48;100.00